sensor_id;sensor_type;location;lat;lon;timestamp;P1;durP1;ratioP1;P2;durP2;ratioP2
37459;SDS011;23318;50.966;5.284;2023-03-14T00:02:15;7.30;;;1.50;;
37459;SDS011;23318;50.966;5.284;2023-03-14T00:04:41;10.80;;;1.55;;
37459;SDS011;23318;50.966;5.284;2023-03-14T00:07:07;5.78;;;1.42;;
37459;SDS011;23318;50.966;5.284;2023-03-14T00:09:35;5.80;;;1.65;;
37459;SDS011;23318;50.966;5.284;2023-03-14T00:12:01;5.45;;;1.70;;
37459;SDS011;23318;50.966;5.284;2023-03-14T00:14:28;7.35;;;1.90;;
37459;SDS011;23318;50.966;5.284;2023-03-14T00:16:54;6.40;;;1.48;;
37459;SDS011;23318;50.966;5.284;2023-03-14T00:19:19;5.07;;;1.45;;
37459;SDS011;23318;50.966;5.284;2023-03-14T00:21:45;10.13;;;1.98;;
37459;SDS011;23318;50.966;5.284;2023-03-14T00:24:11;9.75;;;1.80;;
37459;SDS011;23318;50.966;5.284;2023-03-14T00:26:37;7.45;;;2.03;;
37459;SDS011;23318;50.966;5.284;2023-03-14T00:29:03;5.15;;;1.20;;
37459;SDS011;23318;50.966;5.284;2023-03-14T00:31:29;6.50;;;1.75;;
37459;SDS011;23318;50.966;5.284;2023-03-14T00:33:54;4.07;;;1.15;;
37459;SDS011;23318;50.966;5.284;2023-03-14T00:36:22;3.80;;;1.08;;
37459;SDS011;23318;50.966;5.284;2023-03-14T00:38:49;3.42;;;0.68;;
37459;SDS011;23318;50.966;5.284;2023-03-14T00:41:17;4.85;;;1.08;;
37459;SDS011;23318;50.966;5.284;2023-03-14T00:43:45;5.68;;;1.20;;
37459;SDS011;23318;50.966;5.284;2023-03-14T00:46:11;5.90;;;1.38;;
37459;SDS011;23318;50.966;5.284;2023-03-14T00:48:39;10.70;;;1.80;;
37459;SDS011;23318;50.966;5.284;2023-03-14T00:51:05;6.13;;;1.60;;
37459;SDS011;23318;50.966;5.284;2023-03-14T00:53:35;10.43;;;1.67;;
37459;SDS011;23318;50.966;5.284;2023-03-14T00:56:03;5.30;;;1.35;;
37459;SDS011;23318;50.966;5.284;2023-03-14T00:58:30;6.38;;;1.67;;
37459;SDS011;23318;50.966;5.284;2023-03-14T01:00:56;6.93;;;1.70;;
37459;SDS011;23318;50.966;5.284;2023-03-14T01:03:21;7.55;;;1.65;;
37459;SDS011;23318;50.966;5.284;2023-03-14T01:05:49;7.82;;;1.48;;
37459;SDS011;23318;50.966;5.284;2023-03-14T01:08:15;6.93;;;1.40;;
37459;SDS011;23318;50.966;5.284;2023-03-14T01:10:41;11.25;;;2.22;;
37459;SDS011;23318;50.966;5.284;2023-03-14T01:13:07;8.93;;;1.80;;
37459;SDS011;23318;50.966;5.284;2023-03-14T01:15:34;5.28;;;1.77;;
37459;SDS011;23318;50.966;5.284;2023-03-14T01:18:00;6.72;;;1.85;;
37459;SDS011;23318;50.966;5.284;2023-03-14T01:20:26;7.90;;;1.88;;
37459;SDS011;23318;50.966;5.284;2023-03-14T01:22:52;10.75;;;1.65;;
37459;SDS011;23318;50.966;5.284;2023-03-14T01:25:17;7.65;;;2.20;;
37459;SDS011;23318;50.966;5.284;2023-03-14T01:27:43;4.82;;;1.45;;
37459;SDS011;23318;50.966;5.284;2023-03-14T01:30:10;10.13;;;1.90;;
37459;SDS011;23318;50.966;5.284;2023-03-14T01:32:36;10.25;;;1.55;;
37459;SDS011;23318;50.966;5.284;2023-03-14T01:35:02;8.52;;;2.10;;
37459;SDS011;23318;50.966;5.284;2023-03-14T01:37:28;14.23;;;2.60;;
37459;SDS011;23318;50.966;5.284;2023-03-14T01:39:54;9.80;;;1.95;;
37459;SDS011;23318;50.966;5.284;2023-03-14T01:42:20;13.55;;;1.90;;
37459;SDS011;23318;50.966;5.284;2023-03-14T01:44:56;8.52;;;2.45;;
37459;SDS011;23318;50.966;5.284;2023-03-14T01:47:24;8.82;;;2.05;;
37459;SDS011;23318;50.966;5.284;2023-03-14T01:49:51;9.60;;;1.50;;
37459;SDS011;23318;50.966;5.284;2023-03-14T01:52:34;12.45;;;1.95;;
37459;SDS011;23318;50.966;5.284;2023-03-14T01:55:08;8.52;;;1.83;;
37459;SDS011;23318;50.966;5.284;2023-03-14T01:57:43;11.45;;;2.28;;
37459;SDS011;23318;50.966;5.284;2023-03-14T02:00:13;10.30;;;2.15;;
37459;SDS011;23318;50.966;5.284;2023-03-14T02:02:43;6.13;;;1.25;;
37459;SDS011;23318;50.966;5.284;2023-03-14T02:05:11;11.63;;;1.70;;
37459;SDS011;23318;50.966;5.284;2023-03-14T02:07:41;9.70;;;2.13;;
37459;SDS011;23318;50.966;5.284;2023-03-14T02:10:15;11.15;;;2.97;;
37459;SDS011;23318;50.966;5.284;2023-03-14T02:12:44;15.65;;;1.50;;
37459;SDS011;23318;50.966;5.284;2023-03-14T02:15:11;8.00;;;2.05;;
37459;SDS011;23318;50.966;5.284;2023-03-14T02:17:37;11.85;;;1.92;;
37459;SDS011;23318;50.966;5.284;2023-03-14T02:22:38;10.85;;;1.80;;
37459;SDS011;23318;50.966;5.284;2023-03-14T02:27:53;10.70;;;1.70;;
37459;SDS011;23318;50.966;5.284;2023-03-14T02:30:21;10.43;;;2.10;;
37459;SDS011;23318;50.966;5.284;2023-03-14T02:32:52;9.18;;;1.67;;
37459;SDS011;23318;50.966;5.284;2023-03-14T02:35:22;8.60;;;1.42;;
37459;SDS011;23318;50.966;5.284;2023-03-14T02:40:28;8.77;;;2.10;;
37459;SDS011;23318;50.966;5.284;2023-03-14T02:42:54;7.05;;;2.03;;
37459;SDS011;23318;50.966;5.284;2023-03-14T02:47:55;14.10;;;3.25;;
37459;SDS011;23318;50.966;5.284;2023-03-14T02:50:26;16.48;;;2.22;;
37459;SDS011;23318;50.966;5.284;2023-03-14T02:52:55;11.95;;;2.13;;
37459;SDS011;23318;50.966;5.284;2023-03-14T02:55:22;12.60;;;2.35;;
37459;SDS011;23318;50.966;5.284;2023-03-14T02:57:48;12.02;;;2.15;;
37459;SDS011;23318;50.966;5.284;2023-03-14T03:00:15;11.45;;;2.55;;
37459;SDS011;23318;50.966;5.284;2023-03-14T03:02:41;14.63;;;2.47;;
37459;SDS011;23318;50.966;5.284;2023-03-14T03:05:07;17.42;;;3.17;;
37459;SDS011;23318;50.966;5.284;2023-03-14T03:07:32;10.63;;;2.65;;
37459;SDS011;23318;50.966;5.284;2023-03-14T03:09:58;7.55;;;1.30;;
37459;SDS011;23318;50.966;5.284;2023-03-14T03:12:24;8.85;;;1.73;;
37459;SDS011;23318;50.966;5.284;2023-03-14T03:14:50;12.40;;;1.73;;
37459;SDS011;23318;50.966;5.284;2023-03-14T03:17:16;8.68;;;1.70;;
37459;SDS011;23318;50.966;5.284;2023-03-14T03:19:42;10.57;;;1.98;;
37459;SDS011;23318;50.966;5.284;2023-03-14T03:22:07;7.78;;;1.40;;
37459;SDS011;23318;50.966;5.284;2023-03-14T03:24:33;8.85;;;1.58;;
37459;SDS011;23318;50.966;5.284;2023-03-14T03:26:59;13.48;;;2.22;;
37459;SDS011;23318;50.966;5.284;2023-03-14T03:29:24;10.50;;;1.45;;
37459;SDS011;23318;50.966;5.284;2023-03-14T03:31:50;8.93;;;1.58;;
37459;SDS011;23318;50.966;5.284;2023-03-14T03:34:16;4.30;;;1.20;;
37459;SDS011;23318;50.966;5.284;2023-03-14T03:36:41;6.95;;;1.70;;
37459;SDS011;23318;50.966;5.284;2023-03-14T03:39:07;7.25;;;1.40;;
37459;SDS011;23318;50.966;5.284;2023-03-14T03:41:33;10.95;;;1.95;;
37459;SDS011;23318;50.966;5.284;2023-03-14T03:43:59;4.97;;;1.85;;
37459;SDS011;23318;50.966;5.284;2023-03-14T03:46:24;6.00;;;1.90;;
37459;SDS011;23318;50.966;5.284;2023-03-14T03:48:54;11.50;;;1.63;;
37459;SDS011;23318;50.966;5.284;2023-03-14T03:51:20;7.70;;;2.60;;
37459;SDS011;23318;50.966;5.284;2023-03-14T03:53:46;9.45;;;1.88;;
37459;SDS011;23318;50.966;5.284;2023-03-14T03:56:12;13.35;;;2.70;;
37459;SDS011;23318;50.966;5.284;2023-03-14T03:58:37;13.40;;;2.58;;
37459;SDS011;23318;50.966;5.284;2023-03-14T04:01:04;17.92;;;2.78;;
37459;SDS011;23318;50.966;5.284;2023-03-14T04:03:31;13.60;;;2.33;;
37459;SDS011;23318;50.966;5.284;2023-03-14T04:06:05;19.15;;;3.00;;
37459;SDS011;23318;50.966;5.284;2023-03-14T04:08:32;12.82;;;2.42;;
37459;SDS011;23318;50.966;5.284;2023-03-14T04:10:58;15.10;;;3.35;;
37459;SDS011;23318;50.966;5.284;2023-03-14T04:13:25;12.18;;;2.28;;
37459;SDS011;23318;50.966;5.284;2023-03-14T04:15:52;13.70;;;3.05;;
37459;SDS011;23318;50.966;5.284;2023-03-14T04:18:18;13.38;;;3.45;;
37459;SDS011;23318;50.966;5.284;2023-03-14T04:20:44;9.95;;;2.30;;
37459;SDS011;23318;50.966;5.284;2023-03-14T04:23:10;12.95;;;2.22;;
37459;SDS011;23318;50.966;5.284;2023-03-14T04:25:37;12.93;;;2.58;;
37459;SDS011;23318;50.966;5.284;2023-03-14T04:28:03;7.32;;;2.17;;
37459;SDS011;23318;50.966;5.284;2023-03-14T04:30:29;13.68;;;2.38;;
37459;SDS011;23318;50.966;5.284;2023-03-14T04:32:54;11.40;;;1.75;;
37459;SDS011;23318;50.966;5.284;2023-03-14T04:35:20;10.57;;;2.28;;
37459;SDS011;23318;50.966;5.284;2023-03-14T04:37:46;13.50;;;1.92;;
37459;SDS011;23318;50.966;5.284;2023-03-14T04:40:14;9.23;;;1.90;;
37459;SDS011;23318;50.966;5.284;2023-03-14T04:42:39;8.13;;;1.50;;
37459;SDS011;23318;50.966;5.284;2023-03-14T04:45:05;5.97;;;1.27;;
37459;SDS011;23318;50.966;5.284;2023-03-14T04:47:32;6.88;;;1.42;;
37459;SDS011;23318;50.966;5.284;2023-03-14T04:49:58;6.30;;;1.83;;
37459;SDS011;23318;50.966;5.284;2023-03-14T04:52:24;5.90;;;1.20;;
37459;SDS011;23318;50.966;5.284;2023-03-14T04:54:49;9.30;;;1.73;;
37459;SDS011;23318;50.966;5.284;2023-03-14T04:57:15;8.32;;;1.75;;
37459;SDS011;23318;50.966;5.284;2023-03-14T04:59:41;4.05;;;1.15;;
37459;SDS011;23318;50.966;5.284;2023-03-14T05:02:06;3.08;;;0.65;;
37459;SDS011;23318;50.966;5.284;2023-03-14T05:04:32;3.72;;;1.25;;
37459;SDS011;23318;50.966;5.284;2023-03-14T05:06:58;7.18;;;1.17;;
37459;SDS011;23318;50.966;5.284;2023-03-14T05:09:25;5.07;;;0.90;;
37459;SDS011;23318;50.966;5.284;2023-03-14T05:11:50;2.40;;;1.00;;
37459;SDS011;23318;50.966;5.284;2023-03-14T05:14:16;5.57;;;1.23;;
37459;SDS011;23318;50.966;5.284;2023-03-14T05:16:42;5.10;;;0.95;;
37459;SDS011;23318;50.966;5.284;2023-03-14T05:19:07;2.97;;;0.90;;
37459;SDS011;23318;50.966;5.284;2023-03-14T05:21:33;4.70;;;1.23;;
37459;SDS011;23318;50.966;5.284;2023-03-14T05:23:59;4.13;;;0.90;;
37459;SDS011;23318;50.966;5.284;2023-03-14T05:26:24;5.30;;;1.42;;
37459;SDS011;23318;50.966;5.284;2023-03-14T05:28:50;4.75;;;1.00;;
37459;SDS011;23318;50.966;5.284;2023-03-14T05:31:16;3.80;;;1.08;;
37459;SDS011;23318;50.966;5.284;2023-03-14T05:33:41;4.45;;;0.85;;
37459;SDS011;23318;50.966;5.284;2023-03-14T05:36:07;2.90;;;0.70;;
37459;SDS011;23318;50.966;5.284;2023-03-14T05:38:33;2.33;;;0.80;;
37459;SDS011;23318;50.966;5.284;2023-03-14T05:40:59;1.45;;;0.52;;
37459;SDS011;23318;50.966;5.284;2023-03-14T05:43:24;1.95;;;0.70;;
37459;SDS011;23318;50.966;5.284;2023-03-14T05:45:50;1.63;;;0.85;;
37459;SDS011;23318;50.966;5.284;2023-03-14T05:48:16;6.53;;;1.13;;
37459;SDS011;23318;50.966;5.284;2023-03-14T05:50:42;3.20;;;1.58;;
37459;SDS011;23318;50.966;5.284;2023-03-14T05:53:07;2.90;;;1.45;;
37459;SDS011;23318;50.966;5.284;2023-03-14T05:55:33;2.40;;;1.45;;
37459;SDS011;23318;50.966;5.284;2023-03-14T05:57:58;5.07;;;2.40;;
37459;SDS011;23318;50.966;5.284;2023-03-14T06:00:24;3.60;;;2.20;;
37459;SDS011;23318;50.966;5.284;2023-03-14T06:02:50;7.20;;;3.35;;
37459;SDS011;23318;50.966;5.284;2023-03-14T06:05:16;3.88;;;2.35;;
37459;SDS011;23318;50.966;5.284;2023-03-14T06:07:41;6.47;;;3.05;;
37459;SDS011;23318;50.966;5.284;2023-03-14T06:10:07;4.25;;;3.17;;
37459;SDS011;23318;50.966;5.284;2023-03-14T06:12:33;6.78;;;3.47;;
37459;SDS011;23318;50.966;5.284;2023-03-14T06:14:59;7.47;;;3.15;;
37459;SDS011;23318;50.966;5.284;2023-03-14T06:17:25;5.00;;;3.30;;
37459;SDS011;23318;50.966;5.284;2023-03-14T06:19:51;5.38;;;3.45;;
37459;SDS011;23318;50.966;5.284;2023-03-14T06:22:16;5.80;;;3.15;;
37459;SDS011;23318;50.966;5.284;2023-03-14T06:24:42;4.93;;;3.10;;
37459;SDS011;23318;50.966;5.284;2023-03-14T06:27:08;5.75;;;3.03;;
37459;SDS011;23318;50.966;5.284;2023-03-14T06:29:33;7.63;;;3.08;;
37459;SDS011;23318;50.966;5.284;2023-03-14T06:31:59;4.70;;;2.60;;
37459;SDS011;23318;50.966;5.284;2023-03-14T06:34:25;4.20;;;2.72;;
37459;SDS011;23318;50.966;5.284;2023-03-14T06:36:50;3.25;;;2.40;;
37459;SDS011;23318;50.966;5.284;2023-03-14T06:39:16;3.90;;;2.03;;
37459;SDS011;23318;50.966;5.284;2023-03-14T06:41:41;6.18;;;2.30;;
37459;SDS011;23318;50.966;5.284;2023-03-14T06:44:07;6.10;;;2.53;;
37459;SDS011;23318;50.966;5.284;2023-03-14T06:46:33;2.90;;;1.63;;
37459;SDS011;23318;50.966;5.284;2023-03-14T06:48:58;3.63;;;1.70;;
37459;SDS011;23318;50.966;5.284;2023-03-14T06:51:24;4.05;;;1.58;;
37459;SDS011;23318;50.966;5.284;2023-03-14T06:53:50;5.13;;;1.98;;
37459;SDS011;23318;50.966;5.284;2023-03-14T06:56:15;3.95;;;1.60;;
37459;SDS011;23318;50.966;5.284;2023-03-14T06:58:41;5.65;;;1.70;;
37459;SDS011;23318;50.966;5.284;2023-03-14T07:01:12;3.30;;;1.55;;
37459;SDS011;23318;50.966;5.284;2023-03-14T07:03:45;5.15;;;1.88;;
37459;SDS011;23318;50.966;5.284;2023-03-14T07:06:11;4.45;;;1.75;;
37459;SDS011;23318;50.966;5.284;2023-03-14T07:08:37;6.13;;;1.92;;
37459;SDS011;23318;50.966;5.284;2023-03-14T07:11:04;2.08;;;1.67;;
37459;SDS011;23318;50.966;5.284;2023-03-14T07:13:30;5.70;;;1.98;;
37459;SDS011;23318;50.966;5.284;2023-03-14T07:15:55;2.20;;;1.98;;
37459;SDS011;23318;50.966;5.284;2023-03-14T07:18:21;5.10;;;1.83;;
37459;SDS011;23318;50.966;5.284;2023-03-14T07:20:47;6.53;;;2.80;;
37459;SDS011;23318;50.966;5.284;2023-03-14T07:23:12;3.63;;;2.33;;
37459;SDS011;23318;50.966;5.284;2023-03-14T07:25:38;4.03;;;2.65;;
37459;SDS011;23318;50.966;5.284;2023-03-14T07:28:04;5.53;;;2.70;;
37459;SDS011;23318;50.966;5.284;2023-03-14T07:30:30;6.78;;;2.85;;
37459;SDS011;23318;50.966;5.284;2023-03-14T07:32:55;6.72;;;2.90;;
37459;SDS011;23318;50.966;5.284;2023-03-14T07:35:21;7.43;;;2.20;;
37459;SDS011;23318;50.966;5.284;2023-03-14T07:37:47;3.03;;;2.47;;
37459;SDS011;23318;50.966;5.284;2023-03-14T07:40:12;4.55;;;2.92;;
37459;SDS011;23318;50.966;5.284;2023-03-14T07:42:40;6.88;;;2.92;;
37459;SDS011;23318;50.966;5.284;2023-03-14T07:45:07;5.60;;;2.17;;
37459;SDS011;23318;50.966;5.284;2023-03-14T07:47:33;6.55;;;2.83;;
37459;SDS011;23318;50.966;5.284;2023-03-14T07:49:59;4.65;;;2.55;;
37459;SDS011;23318;50.966;5.284;2023-03-14T07:52:25;1.48;;;0.75;;
37459;SDS011;23318;50.966;5.284;2023-03-14T07:54:50;3.00;;;0.60;;
37459;SDS011;23318;50.966;5.284;2023-03-14T07:57:16;1.08;;;0.63;;
37459;SDS011;23318;50.966;5.284;2023-03-14T07:59:42;1.30;;;1.05;;
37459;SDS011;23318;50.966;5.284;2023-03-14T08:02:10;2.35;;;0.70;;
37459;SDS011;23318;50.966;5.284;2023-03-14T08:04:37;1.65;;;0.98;;
37459;SDS011;23318;50.966;5.284;2023-03-14T08:07:03;2.15;;;1.50;;
37459;SDS011;23318;50.966;5.284;2023-03-14T08:09:28;5.05;;;1.80;;
37459;SDS011;23318;50.966;5.284;2023-03-14T08:11:54;2.97;;;2.03;;
37459;SDS011;23318;50.966;5.284;2023-03-14T08:14:20;4.05;;;2.53;;
37459;SDS011;23318;50.966;5.284;2023-03-14T08:16:45;3.95;;;2.70;;
37459;SDS011;23318;50.966;5.284;2023-03-14T08:19:11;3.80;;;2.65;;
37459;SDS011;23318;50.966;5.284;2023-03-14T08:21:37;4.15;;;2.95;;
37459;SDS011;23318;50.966;5.284;2023-03-14T08:24:02;4.53;;;3.13;;
37459;SDS011;23318;50.966;5.284;2023-03-14T08:26:28;2.80;;;2.53;;
37459;SDS011;23318;50.966;5.284;2023-03-14T08:28:54;6.28;;;3.28;;
37459;SDS011;23318;50.966;5.284;2023-03-14T08:31:19;6.10;;;3.55;;
37459;SDS011;23318;50.966;5.284;2023-03-14T08:33:45;7.28;;;3.22;;
37459;SDS011;23318;50.966;5.284;2023-03-14T08:36:10;5.63;;;2.85;;
37459;SDS011;23318;50.966;5.284;2023-03-14T08:38:36;6.30;;;3.35;;
37459;SDS011;23318;50.966;5.284;2023-03-14T08:41:02;7.63;;;2.92;;
37459;SDS011;23318;50.966;5.284;2023-03-14T08:43:28;4.65;;;3.15;;
37459;SDS011;23318;50.966;5.284;2023-03-14T08:45:57;7.47;;;2.90;;
37459;SDS011;23318;50.966;5.284;2023-03-14T08:48:24;5.53;;;2.70;;
37459;SDS011;23318;50.966;5.284;2023-03-14T08:50:50;3.58;;;2.25;;
37459;SDS011;23318;50.966;5.284;2023-03-14T08:53:15;3.85;;;2.85;;
37459;SDS011;23318;50.966;5.284;2023-03-14T08:55:41;5.90;;;2.60;;
37459;SDS011;23318;50.966;5.284;2023-03-14T08:58:07;3.85;;;2.60;;
37459;SDS011;23318;50.966;5.284;2023-03-14T09:00:33;4.85;;;1.70;;
37459;SDS011;23318;50.966;5.284;2023-03-14T09:02:58;3.67;;;1.85;;
37459;SDS011;23318;50.966;5.284;2023-03-14T09:05:24;6.78;;;2.22;;
37459;SDS011;23318;50.966;5.284;2023-03-14T09:07:50;8.63;;;2.13;;
37459;SDS011;23318;50.966;5.284;2023-03-14T09:10:15;8.65;;;2.17;;
37459;SDS011;23318;50.966;5.284;2023-03-14T09:12:41;4.35;;;1.80;;
37459;SDS011;23318;50.966;5.284;2023-03-14T09:15:07;3.08;;;1.70;;
37459;SDS011;23318;50.966;5.284;2023-03-14T09:17:33;5.93;;;2.28;;
37459;SDS011;23318;50.966;5.284;2023-03-14T09:19:58;6.60;;;2.72;;
37459;SDS011;23318;50.966;5.284;2023-03-14T09:22:24;4.53;;;2.25;;
37459;SDS011;23318;50.966;5.284;2023-03-14T09:24:50;12.38;;;2.70;;
37459;SDS011;23318;50.966;5.284;2023-03-14T09:27:15;9.20;;;3.08;;
37459;SDS011;23318;50.966;5.284;2023-03-14T09:29:41;5.60;;;2.20;;
37459;SDS011;23318;50.966;5.284;2023-03-14T09:32:07;5.57;;;1.90;;
37459;SDS011;23318;50.966;5.284;2023-03-14T09:34:33;4.63;;;2.30;;
37459;SDS011;23318;50.966;5.284;2023-03-14T09:36:59;6.80;;;2.17;;
37459;SDS011;23318;50.966;5.284;2023-03-14T09:39:25;5.20;;;2.15;;
37459;SDS011;23318;50.966;5.284;2023-03-14T09:41:51;4.80;;;1.77;;
37459;SDS011;23318;50.966;5.284;2023-03-14T09:44:24;9.82;;;2.58;;
37459;SDS011;23318;50.966;5.284;2023-03-14T09:46:56;2.33;;;2.00;;
37459;SDS011;23318;50.966;5.284;2023-03-14T09:49:30;5.25;;;2.65;;
37459;SDS011;23318;50.966;5.284;2023-03-14T09:52:22;5.65;;;2.92;;
37459;SDS011;23318;50.966;5.284;2023-03-14T09:55:15;11.32;;;3.35;;
37459;SDS011;23318;50.966;5.284;2023-03-14T09:57:42;8.70;;;4.25;;
37459;SDS011;23318;50.966;5.284;2023-03-14T10:00:15;4.25;;;2.88;;
37459;SDS011;23318;50.966;5.284;2023-03-14T10:02:53;4.40;;;3.08;;
37459;SDS011;23318;50.966;5.284;2023-03-14T10:05:38;2.63;;;2.25;;
37459;SDS011;23318;50.966;5.284;2023-03-14T10:08:05;4.47;;;2.17;;
37459;SDS011;23318;50.966;5.284;2023-03-14T10:10:31;3.30;;;1.98;;
37459;SDS011;23318;50.966;5.284;2023-03-14T10:16:04;3.58;;;2.20;;
37459;SDS011;23318;50.966;5.284;2023-03-14T10:18:31;3.78;;;1.90;;
37459;SDS011;23318;50.966;5.284;2023-03-14T10:23:32;4.28;;;1.70;;
37459;SDS011;23318;50.966;5.284;2023-03-14T10:26:04;3.03;;;1.60;;
37459;SDS011;23318;50.966;5.284;2023-03-14T10:28:38;5.20;;;1.48;;
37459;SDS011;23318;50.966;5.284;2023-03-14T10:31:08;5.40;;;2.03;;
37459;SDS011;23318;50.966;5.284;2023-03-14T10:33:35;3.70;;;1.77;;
37459;SDS011;23318;50.966;5.284;2023-03-14T10:38:42;3.15;;;2.10;;
37459;SDS011;23318;50.966;5.284;2023-03-14T10:41:16;3.42;;;1.70;;
37459;SDS011;23318;50.966;5.284;2023-03-14T10:43:50;4.32;;;2.10;;
37459;SDS011;23318;50.966;5.284;2023-03-14T10:46:19;8.05;;;1.95;;
37459;SDS011;23318;50.966;5.284;2023-03-14T10:48:45;2.97;;;1.42;;
37459;SDS011;23318;50.966;5.284;2023-03-14T10:51:18;4.25;;;1.83;;
37459;SDS011;23318;50.966;5.284;2023-03-14T10:53:59;5.40;;;1.33;;
37459;SDS011;23318;50.966;5.284;2023-03-14T10:56:26;3.35;;;1.08;;
37459;SDS011;23318;50.966;5.284;2023-03-14T10:58:58;4.90;;;1.38;;
37459;SDS011;23318;50.966;5.284;2023-03-14T11:04:09;3.38;;;1.15;;
37459;SDS011;23318;50.966;5.284;2023-03-14T11:11:54;1.65;;;0.80;;
37459;SDS011;23318;50.966;5.284;2023-03-14T11:14:28;1.75;;;0.85;;
37459;SDS011;23318;50.966;5.284;2023-03-14T11:17:05;3.15;;;1.08;;
37459;SDS011;23318;50.966;5.284;2023-03-14T11:19:53;3.92;;;0.77;;
37459;SDS011;23318;50.966;5.284;2023-03-14T11:22:31;2.03;;;1.00;;
37459;SDS011;23318;50.966;5.284;2023-03-14T11:28:14;3.30;;;0.98;;
37459;SDS011;23318;50.966;5.284;2023-03-14T11:33:24;4.78;;;1.55;;
37459;SDS011;23318;50.966;5.284;2023-03-14T11:36:09;1.75;;;0.70;;
37459;SDS011;23318;50.966;5.284;2023-03-14T11:41:15;1.50;;;1.10;;
37459;SDS011;23318;50.966;5.284;2023-03-14T11:43:55;1.30;;;1.20;;
37459;SDS011;23318;50.966;5.284;2023-03-14T11:46:27;2.65;;;1.45;;
37459;SDS011;23318;50.966;5.284;2023-03-14T11:52:01;6.53;;;1.52;;
37459;SDS011;23318;50.966;5.284;2023-03-14T11:54:45;5.47;;;1.75;;
37459;SDS011;23318;50.966;5.284;2023-03-14T11:57:19;3.42;;;2.05;;
37459;SDS011;23318;50.966;5.284;2023-03-14T12:02:31;5.22;;;2.45;;
37459;SDS011;23318;50.966;5.284;2023-03-14T12:08:19;4.03;;;1.55;;
37459;SDS011;23318;50.966;5.284;2023-03-14T12:10:54;3.40;;;1.30;;
37459;SDS011;23318;50.966;5.284;2023-03-14T12:13:27;4.57;;;1.67;;
37459;SDS011;23318;50.966;5.284;2023-03-14T12:16:00;2.25;;;1.60;;
37459;SDS011;23318;50.966;5.284;2023-03-14T12:18:29;2.45;;;1.50;;
37459;SDS011;23318;50.966;5.284;2023-03-14T12:21:04;6.25;;;1.70;;
37459;SDS011;23318;50.966;5.284;2023-03-14T12:23:41;3.28;;;1.83;;
37459;SDS011;23318;50.966;5.284;2023-03-14T12:28:39;11.57;;;2.17;;
37459;SDS011;23318;50.966;5.284;2023-03-14T12:34:03;13.63;;;3.00;;
37459;SDS011;23318;50.966;5.284;2023-03-14T12:41:53;17.00;;;3.13;;
37459;SDS011;23318;50.966;5.284;2023-03-14T12:46:57;14.68;;;2.78;;
37459;SDS011;23318;50.966;5.284;2023-03-14T12:49:30;14.38;;;2.30;;
37459;SDS011;23318;50.966;5.284;2023-03-14T12:52:00;18.90;;;2.72;;
37459;SDS011;23318;50.966;5.284;2023-03-14T12:54:47;18.13;;;3.50;;
37459;SDS011;23318;50.966;5.284;2023-03-14T13:00:13;12.00;;;2.90;;
37459;SDS011;23318;50.966;5.284;2023-03-14T13:02:42;17.80;;;2.38;;
37459;SDS011;23318;50.966;5.284;2023-03-14T13:05:13;23.70;;;3.90;;
37459;SDS011;23318;50.966;5.284;2023-03-14T13:12:48;19.67;;;3.50;;
37459;SDS011;23318;50.966;5.284;2023-03-14T13:15:22;30.30;;;4.40;;
37459;SDS011;23318;50.966;5.284;2023-03-14T13:18:01;26.80;;;4.47;;
37459;SDS011;23318;50.966;5.284;2023-03-14T13:20:35;22.73;;;5.13;;
37459;SDS011;23318;50.966;5.284;2023-03-14T13:23:03;28.48;;;4.30;;
37459;SDS011;23318;50.966;5.284;2023-03-14T13:25:31;25.65;;;4.57;;
37459;SDS011;23318;50.966;5.284;2023-03-14T13:27:58;28.85;;;4.78;;
37459;SDS011;23318;50.966;5.284;2023-03-14T13:30:25;25.25;;;3.75;;
37459;SDS011;23318;50.966;5.284;2023-03-14T13:32:53;33.42;;;4.35;;
37459;SDS011;23318;50.966;5.284;2023-03-14T13:35:27;22.85;;;4.18;;
37459;SDS011;23318;50.966;5.284;2023-03-14T13:37:55;22.70;;;3.30;;
37459;SDS011;23318;50.966;5.284;2023-03-14T13:40:33;20.33;;;3.78;;
37459;SDS011;23318;50.966;5.284;2023-03-14T13:43:06;20.53;;;3.60;;
37459;SDS011;23318;50.966;5.284;2023-03-14T13:48:46;21.73;;;3.33;;
37459;SDS011;23318;50.966;5.284;2023-03-14T13:51:15;21.08;;;3.97;;
37459;SDS011;23318;50.966;5.284;2023-03-14T13:53:43;17.55;;;3.63;;
37459;SDS011;23318;50.966;5.284;2023-03-14T13:56:10;17.65;;;3.30;;
37459;SDS011;23318;50.966;5.284;2023-03-14T13:58:37;18.85;;;3.83;;
37459;SDS011;23318;50.966;5.284;2023-03-14T14:01:14;28.58;;;5.22;;
37459;SDS011;23318;50.966;5.284;2023-03-14T14:03:43;19.40;;;3.50;;
37459;SDS011;23318;50.966;5.284;2023-03-14T14:06:21;24.20;;;4.00;;
37459;SDS011;23318;50.966;5.284;2023-03-14T14:08:53;20.40;;;3.63;;
37459;SDS011;23318;50.966;5.284;2023-03-14T14:14:28;22.48;;;4.65;;
37459;SDS011;23318;50.966;5.284;2023-03-14T14:17:06;12.13;;;4.30;;
37459;SDS011;23318;50.966;5.284;2023-03-14T14:19:36;16.42;;;3.78;;
37459;SDS011;23318;50.966;5.284;2023-03-14T14:22:03;10.68;;;3.08;;
37459;SDS011;23318;50.966;5.284;2023-03-14T14:24:30;9.50;;;2.45;;
37459;SDS011;23318;50.966;5.284;2023-03-14T14:27:01;9.73;;;3.03;;
37459;SDS011;23318;50.966;5.284;2023-03-14T14:29:34;11.95;;;3.00;;
37459;SDS011;23318;50.966;5.284;2023-03-14T14:32:03;11.48;;;2.35;;
37459;SDS011;23318;50.966;5.284;2023-03-14T14:34:42;10.73;;;3.28;;
37459;SDS011;23318;50.966;5.284;2023-03-14T14:39:48;8.10;;;2.08;;
37459;SDS011;23318;50.966;5.284;2023-03-14T14:42:16;11.07;;;3.42;;
37459;SDS011;23318;50.966;5.284;2023-03-14T14:44:43;12.25;;;2.67;;
37459;SDS011;23318;50.966;5.284;2023-03-14T14:47:13;16.05;;;6.03;;
37459;SDS011;23318;50.966;5.284;2023-03-14T14:49:40;10.20;;;2.92;;
37459;SDS011;23318;50.966;5.284;2023-03-14T14:52:14;13.20;;;3.10;;
37459;SDS011;23318;50.966;5.284;2023-03-14T14:54:47;8.25;;;2.05;;
37459;SDS011;23318;50.966;5.284;2023-03-14T14:57:25;8.38;;;2.88;;
37459;SDS011;23318;50.966;5.284;2023-03-14T15:00:09;10.50;;;2.50;;
37459;SDS011;23318;50.966;5.284;2023-03-14T15:02:46;12.80;;;2.38;;
37459;SDS011;23318;50.966;5.284;2023-03-14T15:05:16;9.98;;;2.53;;
37459;SDS011;23318;50.966;5.284;2023-03-14T15:07:46;12.82;;;2.50;;
37459;SDS011;23318;50.966;5.284;2023-03-14T15:10:16;12.15;;;2.55;;
37459;SDS011;23318;50.966;5.284;2023-03-14T15:12:46;12.95;;;3.10;;
37459;SDS011;23318;50.966;5.284;2023-03-14T15:15:15;11.55;;;2.70;;
37459;SDS011;23318;50.966;5.284;2023-03-14T15:17:41;13.50;;;2.50;;
37459;SDS011;23318;50.966;5.284;2023-03-14T15:20:12;5.70;;;1.70;;
37459;SDS011;23318;50.966;5.284;2023-03-14T15:22:39;2.47;;;0.93;;
37459;SDS011;23318;50.966;5.284;2023-03-14T15:25:06;10.35;;;2.08;;
37459;SDS011;23318;50.966;5.284;2023-03-14T15:27:32;7.55;;;1.48;;
37459;SDS011;23318;50.966;5.284;2023-03-14T15:29:58;6.22;;;1.70;;
37459;SDS011;23318;50.966;5.284;2023-03-14T15:32:25;7.45;;;1.20;;
37459;SDS011;23318;50.966;5.284;2023-03-14T15:34:52;4.95;;;1.30;;
37459;SDS011;23318;50.966;5.284;2023-03-14T15:37:21;6.88;;;1.77;;
37459;SDS011;23318;50.966;5.284;2023-03-14T15:39:47;12.98;;;2.53;;
37459;SDS011;23318;50.966;5.284;2023-03-14T15:42:14;12.60;;;1.90;;
37459;SDS011;23318;50.966;5.284;2023-03-14T15:44:39;10.63;;;1.60;;
37459;SDS011;23318;50.966;5.284;2023-03-14T15:47:05;10.57;;;1.90;;
37459;SDS011;23318;50.966;5.284;2023-03-14T15:49:32;5.15;;;1.30;;
37459;SDS011;23318;50.966;5.284;2023-03-14T15:51:57;8.75;;;2.40;;
37459;SDS011;23318;50.966;5.284;2023-03-14T15:54:24;13.13;;;2.20;;
37459;SDS011;23318;50.966;5.284;2023-03-14T15:56:56;8.95;;;2.80;;
37459;SDS011;23318;50.966;5.284;2023-03-14T15:59:22;13.35;;;2.80;;
37459;SDS011;23318;50.966;5.284;2023-03-14T16:01:49;10.77;;;2.30;;
37459;SDS011;23318;50.966;5.284;2023-03-14T16:04:14;12.82;;;1.83;;